Time;durP1;ratioP1;P1;durP2;ratioP2;P2;SDS_P1;SDS_P2;PMS_P1;PMS_P2;Temp;Humidity;BMP_temperature;BMP_pressure;BME280_temperature;BME280_humidity;BME280_pressure;Samples;Min_cycle;Max_cycle;Signal;HPM_P1;HPM_P2
2021/04/22 00:02:24;;;;;;;11.35;4.22;;;;;;;5.72;58.83;100192.50;4953188;29;20039;-69
2021/04/22 00:04:50;;;;;;;16.63;4.03;;;;;;;5.68;58.11;100198.69;4953131;29;20534;-69
2021/04/22 00:07:17;;;;;;;9.73;3.13;;;;;;;5.65;58.79;100188.28;4953276;29;20043;-70
2021/04/22 00:09:42;;;;;;;9.40;3.85;;;;;;;5.60;58.53;100187.53;4953704;29;20085;-70
2021/04/22 00:12:08;;;;;;;12.98;3.25;;;;;;;5.56;58.74;100197.22;4949293;29;20435;-70
2021/04/22 00:14:34;;;;;;;11.43;3.95;;;;;;;5.56;58.79;100197.22;4933973;29;20555;-69
2021/04/22 00:17:00;;;;;;;7.22;3.22;;;;;;;5.56;59.03;100199.84;4933202;29;20119;-70
2021/04/22 00:19:25;;;;;;;14.35;5.18;;;;;;;5.49;59.02;100199.97;4933545;29;20051;-70
2021/04/22 00:21:51;;;;;;;10.52;3.45;;;;;;;5.41;59.40;100209.75;4933517;29;20516;-69
2021/04/22 00:24:16;;;;;;;13.35;5.15;;;;;;;5.41;59.56;100204.50;4933638;29;20039;-69
2021/04/22 00:26:41;;;;;;;8.88;3.30;;;;;;;5.36;59.65;100207.22;4933202;29;20118;-69
2021/04/22 00:29:07;;;;;;;11.00;3.13;;;;;;;5.29;59.92;100210.84;4933952;29;20473;-69
2021/04/22 00:31:32;;;;;;;16.88;4.28;;;;;;;5.26;59.71;100206.56;4933407;29;20477;-70
2021/04/22 00:33:57;;;;;;;14.43;3.45;;;;;;;5.30;59.25;100215.22;4933081;29;20070;-69
2021/04/22 00:36:23;;;;;;;11.95;3.30;;;;;;;5.26;59.59;100216.16;4933329;29;20136;-70
2021/04/22 00:38:48;;;;;;;8.35;3.60;;;;;;;5.25;60.13;100217.06;4933504;29;20110;-70
2021/04/22 00:41:14;;;;;;;13.55;3.92;;;;;;;5.30;59.19;100217.81;4933041;29;20048;-69
2021/04/22 00:43:39;;;;;;;18.02;3.97;;;;;;;5.30;59.71;100220.44;4933747;29;20098;-70
2021/04/22 00:46:05;;;;;;;14.73;3.80;;;;;;;5.24;59.85;100221.44;4934423;29;20126;-69
2021/04/22 00:48:30;;;;;;;14.95;4.28;;;;;;;5.20;60.01;100214.53;4935110;29;20062;-69
2021/04/22 00:50:56;;;;;;;9.57;2.60;;;;;;;5.26;59.74;100218.78;4945382;29;20436;-69
2021/04/22 00:53:22;;;;;;;12.27;3.60;;;;;;;5.19;59.32;100210.19;4944911;29;20042;-69
2021/04/22 00:55:49;;;;;;;11.35;4.55;;;;;;;5.18;59.56;100224.16;4952130;29;20106;-69
2021/04/22 00:58:14;;;;;;;14.15;4.88;;;;;;;5.09;59.67;100230.41;4952633;29;20047;-69
2021/04/22 01:00:55;;;;;;;11.85;3.33;;;;;;;5.04;60.14;100228.78;4932942;29;20044;-69
2021/04/22 01:03:21;;;;;;;12.52;3.85;;;;;;;4.92;60.46;100228.16;4958943;29;20040;-70
2021/04/22 01:05:57;;;;;;;9.30;3.83;;;;;;;4.84;60.42;100227.41;4965206;29;20038;-69
2021/04/22 01:08:23;;;;;;;;;;;;;;;4.78;60.29;100224.94;4963257;29;20055;-69
2021/04/22 01:10:48;;;;;;;13.10;3.63;;;;;;;4.75;60.74;100235.44;4953649;29;19921;-69
2021/04/22 01:13:14;;;;;;;14.05;5.00;;;;;;;4.74;60.83;100239.78;4961755;28;20039;-69
2021/04/22 01:15:40;;;;;;;16.17;3.78;;;;;;;4.74;60.33;100241.53;4962138;29;20046;-70
2021/04/22 01:18:06;;;;;;;12.23;3.40;;;;;;;4.75;60.30;100248.50;4956146;29;20034;-70
2021/04/22 01:20:38;;;;;;;16.17;5.55;;;;;;;4.69;59.94;100241.63;4934563;29;20402;-70
2021/04/22 01:23:04;;;;;;;10.90;4.07;;;;;;;4.62;60.13;100245.22;4951586;29;20122;-70
2021/04/22 01:25:32;;;;;;;14.27;3.05;;;;;;;4.59;59.90;100244.44;4951559;29;20046;-70
2021/04/22 01:28:00;;;;;;;27.90;6.20;;;;;;;4.56;60.09;100247.09;4951979;29;20569;-70
2021/04/22 01:30:30;;;;;;;16.80;4.03;;;;;;;4.58;59.94;100246.19;4952932;28;20027;-69
2021/04/22 01:32:57;;;;;;;12.45;4.05;;;;;;;4.53;60.35;100255.84;4939666;29;20102;-70
2021/04/22 01:35:26;;;;;;;11.55;4.03;;;;;;;4.54;59.79;100248.88;4959607;29;20062;-69
2021/04/22 01:37:52;;;;;;;20.63;5.18;;;;;;;4.50;59.34;100261.09;4954296;29;20038;-70
2021/04/22 01:40:19;;;;;;;13.45;3.63;;;;;;;4.40;59.41;100256.91;4920017;29;20036;-69
2021/04/22 01:42:44;;;;;;;15.32;3.97;;;;;;;4.40;59.85;100255.16;4913781;29;20047;-70
2021/04/22 01:45:11;;;;;;;18.13;4.45;;;;;;;4.41;59.92;100256.91;4913083;29;20036;-69
2021/04/22 01:47:37;;;;;;;9.95;3.47;;;;;;;4.45;59.53;100263.78;4896117;29;20032;-71
2021/04/22 01:50:05;;;;;;;20.45;4.80;;;;;;;4.40;59.74;100257.78;4913337;29;20028;-71
2021/04/22 01:52:30;;;;;;;14.10;3.70;;;;;;;4.37;59.67;100256.97;4913222;29;20039;-71
2021/04/22 01:54:56;;;;;;;10.48;3.50;;;;;;;4.39;59.89;100261.28;4913305;29;20400;-69
2021/04/22 01:57:22;;;;;;;18.10;5.13;;;;;;;4.40;60.00;100263.00;4913082;29;20036;-68
2021/04/22 01:59:47;;;;;;;16.23;5.07;;;;;;;4.38;59.58;100272.63;4913636;29;20036;-68
2021/04/22 02:02:13;;;;;;;9.32;3.50;;;;;;;4.38;59.94;100269.13;4913168;29;20488;-69
2021/04/22 02:04:38;;;;;;;16.58;4.45;;;;;;;4.33;59.98;100268.34;4912912;29;20043;-72
2021/04/22 02:07:05;;;;;;;15.20;5.65;;;;;;;4.30;59.85;100274.47;4895904;29;20548;-69
2021/04/22 02:09:31;;;;;;;17.52;3.53;;;;;;;4.33;59.63;100270.97;4937882;29;20385;-71
2021/04/22 02:11:56;;;;;;;23.73;4.90;;;;;;;4.31;59.94;100273.59;4947532;29;20038;-68
2021/04/22 02:14:22;;;;;;;17.13;4.93;;;;;;;4.27;59.73;100278.00;4943909;29;20043;-68
2021/04/22 02:16:47;;;;;;;13.43;3.92;;;;;;;4.19;60.23;100286.84;4951172;29;20186;-69
2021/04/22 02:19:13;;;;;;;19.63;4.95;;;;;;;4.15;60.59;100279.94;4951283;29;20039;-69
2021/04/22 02:21:39;;;;;;;11.23;3.45;;;;;;;4.21;59.93;100282.44;4951128;29;20043;-70
2021/04/22 02:24:05;;;;;;;18.35;4.63;;;;;;;4.11;60.14;100279.13;4933949;29;20036;-67
2021/04/22 02:26:31;;;;;;;20.23;3.88;;;;;;;4.01;61.16;100278.41;4950810;29;20126;-67
2021/04/22 02:28:56;;;;;;;17.17;6.00;;;;;;;4.00;60.58;100281.03;4934574;29;20115;-66
2021/04/22 02:31:21;;;;;;;17.33;5.30;;;;;;;3.98;61.05;100274.97;4931798;29;20039;-68
2021/04/22 02:33:52;;;;;;;12.50;4.57;;;;;;;3.90;61.08;100277.69;4932438;29;20031;-67
2021/04/22 02:36:17;;;;;;;26.42;5.30;;;;;;;3.87;61.43;100289.03;4931633;29;20036;-68
2021/04/22 02:38:43;;;;;;;16.65;5.38;;;;;;;3.85;61.14;100290.78;4930960;29;20032;-67
2021/04/22 02:41:08;;;;;;;19.83;4.47;;;;;;;3.81;61.52;100290.84;4933185;29;20047;-67
2021/04/22 02:43:34;;;;;;;17.38;5.28;;;;;;;3.75;61.42;100298.75;4940526;28;20496;-68
2021/04/22 02:45:59;;;;;;;9.43;4.32;;;;;;;3.66;62.05;100297.13;4935003;29;20039;-68
2021/04/22 02:48:25;;;;;;;22.75;6.30;;;;;;;3.63;62.23;100298.03;4935434;29;20035;-68
2021/04/22 02:50:54;;;;;;;18.33;4.35;;;;;;;3.60;62.23;100298.06;4935970;29;20036;-67
2021/04/22 02:53:20;;;;;;;16.90;3.72;;;;;;;3.54;62.30;100308.56;4935460;29;20110;-67
2021/04/22 02:55:46;;;;;;;28.25;6.15;;;;;;;3.51;62.72;100310.34;4908481;29;20086;-70
2021/04/22 02:58:12;;;;;;;17.10;5.97;;;;;;;3.48;62.74;100306.03;4927581;29;20050;-68
2021/04/22 03:00:39;;;;;;;11.15;4.30;;;;;;;3.49;62.87;100309.50;4934802;29;20044;-70
2021/04/22 03:03:05;;;;;;;16.83;4.50;;;;;;;3.50;62.62;100309.50;4935213;29;20032;-68
2021/04/22 03:05:31;;;;;;;18.45;4.55;;;;;;;3.50;62.88;100312.09;4935202;29;20063;-69
2021/04/22 03:07:56;;;;;;;14.57;4.70;;;;;;;3.53;62.79;100316.41;4918262;29;20115;-68
2021/04/22 03:10:24;;;;;;;19.10;6.15;;;;;;;3.55;62.71;100304.22;4934967;29;20047;-71
2021/04/22 03:12:49;;;;;;;12.48;4.40;;;;;;;3.60;62.74;100313.72;4935471;29;20064;-67
2021/04/22 03:15:15;;;;;;;15.43;5.55;;;;;;;3.60;62.51;100315.47;4934774;29;20039;-69
2021/04/22 03:17:42;;;;;;;19.83;5.00;;;;;;;3.59;62.17;100321.53;4934652;29;20035;-68
2021/04/22 03:20:08;;;;;;;17.85;4.82;;;;;;;3.60;61.76;100320.69;4935017;29;20040;-68
2021/04/22 03:22:33;;;;;;;14.10;4.25;;;;;;;3.62;62.09;100321.53;4917811;29;20118;-68
2021/04/22 03:25:00;;;;;;;15.73;4.60;;;;;;;3.60;62.24;100308.50;4933268;29;20049;-68
2021/04/22 03:27:27;;;;;;;19.35;6.13;;;;;;;3.58;62.28;100307.66;4934898;29;20160;-67
2021/04/22 03:29:53;;;;;;;13.18;3.97;;;;;;;3.54;62.41;100307.69;4934898;29;20047;-68
2021/04/22 03:32:18;;;;;;;14.10;5.68;;;;;;;3.54;61.98;100305.09;4932530;29;20024;-71
2021/04/22 03:34:44;;;;;;;22.58;6.53;;;;;;;3.52;62.31;100307.75;4934698;29;20047;-67
2021/04/22 03:37:09;;;;;;;12.82;4.60;;;;;;;3.54;62.18;100318.13;4916684;29;20038;-69
2021/04/22 03:39:34;;;;;;;13.05;4.07;;;;;;;3.52;62.57;100319.88;4929969;29;20051;-67
2021/04/22 03:42:00;;;;;;;16.25;5.82;;;;;;;3.53;62.00;100322.50;4928116;29;20046;-68
2021/04/22 03:44:25;;;;;;;18.33;5.07;;;;;;;3.50;62.58;100324.28;4948198;29;20129;-68
2021/04/22 03:46:50;;;;;;;19.83;5.85;;;;;;;3.42;63.29;100324.34;4953922;29;20059;-67
2021/04/22 03:49:16;;;;;;;18.73;5.45;;;;;;;3.40;63.47;100321.78;4924779;29;20058;-69
2021/04/22 03:51:41;;;;;;;15.40;4.55;;;;;;;3.37;62.98;100321.81;4934587;29;20028;-71
2021/04/22 03:54:06;;;;;;;23.42;5.03;;;;;;;3.37;63.18;100331.34;4933972;29;20031;-67
2021/04/22 03:56:32;;;;;;;18.02;4.70;;;;;;;3.31;63.75;100324.47;4933892;29;20431;-68
2021/04/22 03:58:57;;;;;;;15.80;5.25;;;;;;;3.30;63.37;100334.91;4934084;29;20031;-69
2021/04/22 04:01:23;;;;;;;19.95;4.78;;;;;;;3.34;63.30;100321.81;4945443;29;20035;-68
2021/04/22 04:03:48;;;;;;;20.67;5.28;;;;;;;3.32;63.59;100325.31;4953451;29;20103;-69
2021/04/22 04:06:13;;;;;;;18.77;6.38;;;;;;;3.35;63.73;100327.94;4952932;29;20062;-69
2021/04/22 04:08:39;;;;;;;18.67;6.00;;;;;;;3.34;63.66;100326.19;4936243;29;20031;-68
2021/04/22 04:11:04;;;;;;;14.38;6.95;;;;;;;3.34;63.82;100331.41;4953098;29;20114;-68
2021/04/22 04:13:29;;;;;;;16.38;5.07;;;;;;;3.31;63.78;100337.50;4952785;28;20035;-68
2021/04/22 04:15:55;;;;;;;20.17;5.78;;;;;;;3.30;63.83;100348.81;4952875;29;20515;-68
2021/04/22 04:18:21;;;;;;;15.80;4.85;;;;;;;3.30;63.50;100348.81;4953704;29;20042;-68
2021/04/22 04:20:47;;;;;;;17.20;6.60;;;;;;;3.32;63.49;100343.56;4953060;29;20042;-69
2021/04/22 04:23:12;;;;;;;20.15;5.95;;;;;;;3.30;63.53;100347.94;4952946;29;20522;-68
2021/04/22 04:25:38;;;;;;;15.77;3.95;;;;;;;3.33;63.49;100350.53;4952857;29;20031;-68
2021/04/22 04:28:04;;;;;;;17.52;5.43;;;;;;;3.35;63.56;100352.22;4953421;29;20650;-69
2021/04/22 04:30:29;;;;;;;19.65;6.07;;;;;;;3.30;63.85;100354.03;4947018;29;20042;-69
2021/04/22 04:32:54;;;;;;;14.48;5.90;;;;;;;3.27;64.21;100355.78;4952682;29;20054;-69
2021/04/22 04:35:20;;;;;;;14.75;7.07;;;;;;;3.25;63.59;100350.59;4965146;29;20554;-69
2021/04/22 04:37:46;;;;;;;18.75;5.22;;;;;;;3.23;63.77;100345.41;4935232;29;20036;-69
2021/04/22 04:40:13;;;;;;;17.35;4.55;;;;;;;3.19;63.52;100348.91;4933615;29;20046;-69
2021/04/22 04:42:39;;;;;;;15.13;4.72;;;;;;;3.19;64.07;100351.50;4933236;29;20038;-71
2021/04/22 04:45:06;;;;;;;14.77;5.07;;;;;;;3.21;63.76;100361.94;4933081;29;20412;-69
2021/04/22 04:47:32;;;;;;;18.35;4.75;;;;;;;3.29;63.78;100354.03;4916834;29;20035;-67
2021/04/22 04:49:57;;;;;;;17.75;6.75;;;;;;;3.35;63.43;100361.81;4952268;29;20108;-67
2021/04/22 04:52:23;;;;;;;24.27;5.20;;;;;;;3.33;63.34;100367.03;4953135;29;20035;-69
2021/04/22 04:54:48;;;;;;;13.52;5.82;;;;;;;3.34;63.62;100362.66;4953404;29;20112;-68
2021/04/22 04:57:14;;;;;;;21.90;6.93;;;;;;;3.31;63.85;100363.56;4935064;29;20129;-70
2021/04/22 04:59:39;;;;;;;19.35;6.68;;;;;;;3.29;64.11;100361.84;4951787;29;20058;-70
2021/04/22 05:02:04;;;;;;;15.65;5.25;;;;;;;3.37;63.92;100366.13;4950797;29;20035;-70
2021/04/22 05:04:30;;;;;;;18.90;6.80;;;;;;;3.41;64.00;100373.00;4916124;29;20040;-71
2021/04/22 05:06:56;;;;;;;17.15;5.43;;;;;;;3.42;63.87;100372.16;4912946;29;20468;-71
2021/04/22 05:09:21;;;;;;;29.48;7.78;;;;;;;3.49;63.47;100383.34;4914979;29;20036;-70
2021/04/22 05:11:46;;;;;;;18.08;5.63;;;;;;;3.57;63.65;100383.25;4931754;29;20046;-70
2021/04/22 05:14:12;;;;;;;20.67;5.43;;;;;;;3.72;63.08;100383.09;4931858;29;20047;-72
2021/04/22 05:16:37;;;;;;;18.85;6.50;;;;;;;3.84;63.06;100380.34;4932189;29;20445;-69
2021/04/22 05:19:11;;;;;;;12.60;5.50;;;;;;;4.02;62.63;100386.22;4932742;29;20040;-70
2021/04/22 05:21:37;;;;;;;21.20;7.10;;;;;;;4.15;61.57;100381.69;4933730;29;20050;-69
2021/04/22 05:24:03;;;;;;;21.75;6.43;;;;;;;4.29;61.08;100378.00;4931680;29;20039;-69
2021/04/22 05:26:31;;;;;;;18.08;4.75;;;;;;;4.49;60.55;100385.56;4932884;29;20040;-70
2021/04/22 05:28:56;;;;;;;32.58;6.05;;;;;;;4.60;59.62;100381.91;4956129;29;20050;-70
2021/04/22 05:31:22;;;;;;;17.65;5.30;;;;;;;4.76;59.55;100383.41;4955793;29;20407;-69
2021/04/22 05:33:48;;;;;;;15.68;4.63;;;;;;;4.81;59.02;100393.81;4957070;29;20038;-70
2021/04/22 05:36:13;;;;;;;27.83;6.40;;;;;;;4.83;58.39;100392.88;4934414;29;20122;-69
2021/04/22 05:38:40;;;;;;;32.80;7.03;;;;;;;4.95;58.33;100395.31;4952025;28;20395;-68
2021/04/22 05:41:05;;;;;;;23.65;6.68;;;;;;;5.01;58.36;100396.09;4951870;28;20062;-68
2021/04/22 05:43:31;;;;;;;23.25;6.70;;;;;;;5.10;58.26;100404.63;4951575;28;20112;-67
2021/04/22 05:45:57;;;;;;;19.10;5.97;;;;;;;5.25;57.55;100394.81;4950794;28;20035;-69
2021/04/22 05:48:23;;;;;;;18.08;6.03;;;;;;;5.44;56.98;100397.94;4951548;29;20031;-71
2021/04/22 05:50:48;;;;;;;18.33;6.40;;;;;;;5.57;56.62;100407.28;4947561;29;20037;-71
2021/04/22 05:53:14;;;;;;;28.98;6.65;;;;;;;5.61;56.52;100411.56;4942743;29;20063;-71
2021/04/22 05:55:40;;;;;;;19.90;6.05;;;;;;;5.67;56.11;100411.47;4930490;29;20034;-69
2021/04/22 05:58:05;;;;;;;16.67;4.90;;;;;;;5.92;55.78;100411.84;4929549;29;20514;-69
2021/04/22 06:00:31;;;;;;;29.25;5.97;;;;;;;6.00;55.19;100404.72;4951771;29;20043;-69
2021/04/22 06:02:57;;;;;;;23.45;5.78;;;;;;;6.05;54.85;100411.63;4951631;29;20035;-70
2021/04/22 06:05:24;;;;;;;20.50;7.93;;;;;;;6.14;54.95;100412.28;4952061;29;20174;-69
2021/04/22 06:07:53;;;;;;;25.98;7.18;;;;;;;6.22;54.92;100417.34;4951410;29;20122;-68
2021/04/22 06:10:20;;;;;;;17.15;6.05;;;;;;;6.39;54.21;100419.63;4933998;29;20027;-71
2021/04/22 06:12:46;;;;;;;16.70;7.38;;;;;;;6.41;53.82;100430.94;4950915;28;20039;-69
2021/04/22 06:15:12;;;;;;;22.10;7.35;;;;;;;6.36;53.43;100420.56;4951554;29;20118;-68
2021/04/22 06:17:38;;;;;;;27.77;7.35;;;;;;;6.34;53.71;100430.19;4935694;29;20086;-68
2021/04/22 06:20:18;;;;;;;26.55;8.27;;;;;;;6.46;53.76;100434.31;4954388;29;20452;-68
2021/04/22 06:22:44;;;;;;;24.13;6.72;;;;;;;6.56;53.82;100433.22;4954467;29;20110;-69
2021/04/22 06:25:10;;;;;;;28.60;8.25;;;;;;;6.61;53.11;100439.19;4953889;29;20444;-70
2021/04/22 06:27:35;;;;;;;33.40;7.88;;;;;;;6.78;53.03;100440.59;4954750;29;20050;-70
2021/04/22 06:30:01;;;;;;;21.13;7.30;;;;;;;6.81;52.76;100441.34;4944706;29;20035;-70
2021/04/22 06:32:26;;;;;;;21.40;7.38;;;;;;;7.04;52.42;100438.22;4937724;29;20035;-69
2021/04/22 06:34:52;;;;;;;20.00;7.65;;;;;;;7.13;51.93;100441.50;4955004;29;20162;-69
2021/04/22 06:37:17;;;;;;;21.48;8.57;;;;;;;7.32;50.48;100446.25;4937904;29;20407;-68
2021/04/22 06:39:43;;;;;;;21.40;7.40;;;;;;;7.56;49.88;100450.94;4955392;29;20043;-69
2021/04/22 06:42:08;;;;;;;21.05;7.90;;;;;;;7.71;49.13;100455.75;4945174;29;20048;-70
2021/04/22 06:44:34;;;;;;;17.08;6.18;;;;;;;7.93;48.78;100456.91;4924986;29;20484;-69
2021/04/22 06:46:59;;;;;;;21.27;6.07;;;;;;;8.05;48.58;100453.06;4927051;29;20036;-69
2021/04/22 06:49:26;;;;;;;22.60;7.68;;;;;;;8.08;47.71;100460.00;4925784;29;20392;-69
2021/04/22 06:51:52;;;;;;;25.85;7.88;;;;;;;8.13;47.96;100468.59;4925912;29;20488;-70
2021/04/22 06:54:17;;;;;;;23.83;7.95;;;;;;;8.46;47.32;100466.78;4925632;29;20066;-69
2021/04/22 06:56:42;;;;;;;26.63;7.55;;;;;;;8.50;47.24;100464.94;4909655;29;20032;-73
2021/04/22 06:59:08;;;;;;;18.85;7.32;;;;;;;8.65;45.92;100467.09;4921248;29;20044;-72
2021/04/22 07:01:33;;;;;;;29.20;6.63;;;;;;;8.77;46.49;100469.38;4916016;29;20032;-73
2021/04/22 07:03:59;;;;;;;27.15;8.48;;;;;;;8.99;45.08;100471.34;4915055;29;20036;-73
2021/04/22 07:06:25;;;;;;;24.55;7.10;;;;;;;9.00;45.14;100478.31;4901984;29;20149;-72
2021/04/22 07:08:50;;;;;;;45.42;11.73;;;;;;;9.29;44.13;100469.47;4916101;29;20036;-71
2021/04/22 07:11:16;;;;;;;17.95;7.50;;;;;;;9.72;43.60;100475.06;4916168;29;20091;-73
2021/04/22 07:13:41;;;;;;;21.65;7.10;;;;;;;10.31;41.81;100477.34;4926260;29;20047;-73
2021/04/22 07:16:06;;;;;;;18.75;6.55;;;;;;;10.45;40.50;100477.69;4937710;29;20422;-72
2021/04/22 07:18:32;;;;;;;35.65;10.50;;;;;;;10.61;40.77;100485.03;4951497;28;20046;-73
2021/04/22 07:20:58;;;;;;;17.17;8.63;;;;;;;11.16;39.15;100478.44;4927704;28;20635;-72
2021/04/22 07:23:23;;;;;;;20.35;5.78;;;;;;;11.60;45.18;100490.75;4947342;28;20042;-57
2021/04/22 07:25:50;;;;;;;24.27;7.68;;;;;;;12.10;38.55;100492.16;4948224;28;20045;-59
2021/04/22 07:28:16;;;;;;;15.60;5.97;;;;;;;11.88;39.76;100481.66;4965365;28;20039;-59
2021/04/22 07:30:42;;;;;;;24.45;7.45;;;;;;;11.64;38.17;100488.81;4967330;28;20026;-56
2021/04/22 07:33:08;;;;;;;18.48;7.00;;;;;;;11.97;37.52;100497.13;4955274;28;20057;-60
2021/04/22 07:35:35;;;;;;;16.25;5.68;;;;;;;12.32;35.25;100495.53;4967564;28;20042;-62
2021/04/22 07:38:00;;;;;;;18.15;6.03;;;;;;;12.20;35.87;100491.66;4949976;28;20082;-59
2021/04/22 07:40:28;;;;;;;9.82;4.50;;;;;;;12.08;35.34;100496.63;4954960;28;20049;-58
2021/04/22 07:42:54;;;;;;;13.43;5.40;;;;;;;12.06;35.05;100498.47;4948079;28;20675;-61
2021/04/22 07:45:34;;;;;;;20.77;5.75;;;;;;;12.20;35.60;100504.88;4948000;28;20035;-61
2021/04/22 07:48:00;;;;;;;13.52;5.75;;;;;;;12.38;35.80;100515.56;4947835;28;20154;-61
2021/04/22 07:50:25;;;;;;;11.52;5.40;;;;;;;12.76;34.41;100507.66;4931032;29;20040;-59
2021/04/22 07:52:51;;;;;;;16.02;5.22;;;;;;;12.98;33.64;100518.97;4940148;28;20177;-61
2021/04/22 07:55:20;;;;;;;14.15;6.80;;;;;;;13.04;33.66;100509.84;4947950;28;20035;-57
2021/04/22 07:57:46;;;;;;;15.07;5.10;;;;;;;13.38;32.54;100514.41;4947454;28;20051;-70
2021/04/22 08:00:14;;;;;;;16.20;5.30;;;;;;;12.75;33.12;100516.53;4930368;28;20042;-69
2021/04/22 08:02:40;;;;;;;17.60;4.60;;;;;;;12.60;33.66;100521.63;4946942;28;20388;-71
2021/04/22 08:05:07;;;;;;;16.65;5.00;;;;;;;12.60;33.77;100516.31;4929654;28;20479;-68
2021/04/22 08:07:32;;;;;;;13.80;5.43;;;;;;;12.70;33.66;100515.88;4947987;28;20077;-71
2021/04/22 08:09:58;;;;;;;19.15;6.10;;;;;;;11.82;35.69;100527.66;4948280;28;20039;-68
2021/04/22 08:12:23;;;;;;;18.13;5.93;;;;;;;11.54;36.39;100520.03;4948030;28;20039;-70
2021/04/22 08:14:49;;;;;;;38.45;6.32;;;;;;;12.53;34.20;100524.59;4929430;29;20487;-70
2021/04/22 08:17:14;;;;;;;22.80;7.53;;;;;;;12.98;33.77;100523.41;4925730;29;20047;-70
2021/04/22 08:19:43;;;;;;;22.75;6.97;;;;;;;13.29;33.13;100528.09;4940668;29;20130;-71
2021/04/22 08:22:08;;;;;;;14.00;5.35;;;;;;;13.27;33.17;100520.25;4943982;29;20063;-69
2021/04/22 08:24:34;;;;;;;18.55;5.65;;;;;;;13.23;33.86;100528.38;4943598;29;20031;-72
2021/04/22 08:26:59;;;;;;;22.67;7.57;;;;;;;13.30;33.83;100528.03;4948362;28;20799;-70
2021/04/22 08:29:25;;;;;;;17.63;5.90;;;;;;;13.22;34.07;100526.66;4930499;29;20039;-70
2021/04/22 08:31:50;;;;;;;16.10;6.43;;;;;;;13.25;33.59;100519.41;4941922;29;20036;-71
2021/04/22 08:34:15;;;;;;;14.68;5.78;;;;;;;13.73;32.59;100519.75;4939820;28;20112;-71
2021/04/22 08:36:41;;;;;;;13.93;5.18;;;;;;;13.56;32.66;100512.66;4943489;28;20058;-72
2021/04/22 08:39:10;;;;;;;15.95;5.57;;;;;;;13.66;32.30;100521.88;4929062;29;20677;-71
2021/04/22 08:41:38;;;;;;;21.00;6.72;;;;;;;13.95;32.34;100511.56;4916529;29;20038;-71
2021/04/22 08:44:04;;;;;;;15.27;6.13;;;;;;;13.94;32.37;100521.31;4913608;29;20083;-71
2021/04/22 08:46:30;;;;;;;22.08;6.57;;;;;;;13.93;32.06;100519.59;4910447;29;20471;-71
2021/04/22 08:48:56;;;;;;;19.13;6.15;;;;;;;14.37;31.60;100511.13;4929812;29;20110;-72
2021/04/22 08:51:22;;;;;;;18.17;5.65;;;;;;;14.56;31.27;100512.78;4933743;29;20043;-71
2021/04/22 08:53:49;;;;;;;20.48;6.13;;;;;;;15.28;30.20;100511.44;4933127;29;20103;-71
2021/04/22 08:56:17;;;;;;;18.77;6.20;;;;;;;15.55;29.42;100519.63;4928080;29;20059;-71
2021/04/22 08:58:43;;;;;;;26.35;5.25;;;;;;;15.74;29.08;100513.25;4927803;29;20783;-71
2021/04/22 09:01:14;;;;;;;26.00;8.48;;;;;;;15.48;29.38;100512.09;4925409;29;20135;-71
2021/04/22 09:03:44;;;;;;;15.80;5.75;;;;;;;15.03;29.93;100509.31;4927534;29;20126;-70
2021/04/22 09:06:11;;;;;;;18.40;6.82;;;;;;;14.53;31.48;100515.59;4909857;29;20035;-69
2021/04/22 09:08:49;;;;;;;22.45;9.05;;;;;;;14.78;31.25;100517.78;4927108;29;20314;-70
2021/04/22 09:11:17;;;;;;;12.18;5.38;;;;;;;14.91;30.60;100518.81;4926858;29;20044;-71
2021/04/22 09:13:43;;;;;;;17.05;6.40;;;;;;;14.79;31.15;100515.06;4927221;29;20429;-71
2021/04/22 09:16:14;;;;;;;21.23;6.47;;;;;;;14.80;30.78;100507.94;4917825;29;20047;-72
2021/04/22 09:18:51;;;;;;;17.40;6.60;;;;;;;14.43;31.19;100514.38;4946920;29;20659;-71
2021/04/22 09:21:29;;;;;;;18.23;7.90;;;;;;;14.91;30.69;100521.47;4934654;29;20402;-69
2021/04/22 09:24:13;;;;;;;13.15;4.63;;;;;;;15.33;29.68;100524.47;4926859;29;20532;-71
2021/04/22 09:26:50;;;;;;;18.77;7.22;;;;;;;14.80;30.75;100516.75;4929546;29;20500;-73
2021/04/22 09:29:35;;;;;;;12.38;5.90;;;;;;;15.43;29.58;100520.31;4946050;29;20042;-71
2021/04/22 09:32:09;;;;;;;15.98;5.80;;;;;;;16.06;27.90;100524.63;4940820;29;20134;-70
2021/04/22 09:34:35;;;;;;;12.05;4.75;;;;;;;16.92;27.03;100511.34;4920928;29;20142;-69
2021/04/22 09:37:00;;;;;;;17.55;5.63;;;;;;;17.11;26.22;100517.22;4939144;29;20178;-71
2021/04/22 09:39:30;;;;;;;15.07;5.68;;;;;;;17.93;25.10;100510.00;4916145;29;20408;-73
2021/04/22 09:42:05;;;;;;;15.73;5.90;;;;;;;18.52;24.84;100506.81;4915813;29;20518;-71
2021/04/22 09:44:30;;;;;;;13.05;5.55;;;;;;;18.65;23.94;100512.97;4917561;29;20611;-71
2021/04/22 09:47:05;;;;;;;8.48;4.53;;;;;;;18.98;23.38;100511.56;4923483;29;20118;-72
2021/04/22 09:49:30;;;;;;;15.82;6.13;;;;;;;19.01;23.62;100497.13;4930306;29;20539;-71
2021/04/22 09:52:07;;;;;;;14.38;5.22;;;;;;;18.87;24.11;100503.47;4928867;29;20790;-70
2021/04/22 09:54:41;;;;;;;14.40;4.47;;;;;;;19.07;23.77;100507.34;4929629;29;20031;-71
2021/04/22 09:57:12;;;;;;;16.88;5.97;;;;;;;18.91;23.40;100504.94;4928892;29;20067;-70
2021/04/22 09:59:42;;;;;;;12.05;4.70;;;;;;;19.13;23.43;100509.59;4927634;29;20036;-70
2021/04/22 10:02:08;;;;;;;15.93;5.80;;;;;;;19.07;23.49;100513.56;4926603;29;20135;-70
2021/04/22 10:04:42;;;;;;;12.75;5.72;;;;;;;19.65;22.89;100512.88;4909796;29;20832;-69
2021/04/22 10:07:24;;;;;;;23.17;6.85;;;;;;;19.63;23.09;100507.63;4923889;29;20124;-71
2021/04/22 10:09:55;;;;;;;16.88;6.13;;;;;;;19.96;22.51;100508.75;4925546;29;20051;-71
2021/04/22 10:12:30;;;;;;;21.17;8.60;;;;;;;19.70;23.24;100500.88;4926504;29;20035;-71
2021/04/22 10:14:56;;;;;;;15.75;6.88;;;;;;;20.07;23.06;100507.91;4927514;29;20102;-70
2021/04/22 10:17:25;;;;;;;18.80;6.10;;;;;;;20.30;22.56;100504.28;4927635;29;20042;-70
2021/04/22 10:19:57;;;;;;;19.88;6.40;;;;;;;20.52;22.02;100510.63;4945417;29;20603;-69
2021/04/22 10:22:43;;;;;;;12.95;5.72;;;;;;;20.28;22.29;100508.03;4936458;29;20470;-70
2021/04/22 10:25:16;;;;;;;20.98;6.20;;;;;;;20.27;22.14;100514.38;4926166;29;20130;-71
2021/04/22 10:27:42;;;;;;;17.30;5.68;;;;;;;20.42;21.69;100513.19;4909500;29;20431;-70
2021/04/22 10:30:16;;;;;;;17.60;4.90;;;;;;;20.56;21.27;100501.41;4930279;29;20051;-72
2021/04/22 10:32:43;;;;;;;13.05;4.97;;;;;;;20.72;21.07;100511.75;4934928;29;20035;-74
2021/04/22 10:35:11;;;;;;;19.65;5.35;;;;;;;20.32;21.66;100510.38;4921186;28;20675;-71
2021/04/22 10:37:40;;;;;;;14.77;5.85;;;;;;;20.34;21.85;100508.44;4907131;29;20036;-71
2021/04/22 10:40:06;;;;;;;19.90;5.45;;;;;;;19.75;22.55;100516.59;4910082;29;20195;-71
2021/04/22 10:42:33;;;;;;;14.75;5.68;;;;;;;19.43;23.00;100522.50;4919651;29;20044;-72
2021/04/22 10:45:01;;;;;;;14.20;5.72;;;;;;;18.33;24.43;100519.75;4926136;29;20122;-74
2021/04/22 10:47:26;;;;;;;13.98;6.40;;;;;;;17.87;25.50;100522.91;4925692;29;20028;-72
2021/04/22 10:49:52;;;;;;;19.40;6.03;;;;;;;17.39;26.00;100520.72;4926315;29;20135;-71
2021/04/22 10:52:19;;;;;;;13.60;4.70;;;;;;;16.86;26.44;100515.28;4926459;29;20807;-71
2021/04/22 10:54:47;;;;;;;28.10;5.82;;;;;;;16.45;26.85;100524.00;4917380;29;20580;-71
2021/04/22 10:57:17;;;;;;;17.52;5.28;;;;;;;16.09;28.20;100524.44;4906218;29;20135;-71
2021/04/22 10:59:44;;;;;;;12.48;4.65;;;;;;;15.45;29.04;100519.28;4907240;29;20508;-71
2021/04/22 11:02:17;;;;;;;18.23;5.07;;;;;;;15.08;29.22;100517.88;4923440;29;20063;-70
2021/04/22 11:04:44;;;;;;;12.10;5.00;;;;;;;14.27;30.55;100511.66;4926925;29;20041;-71
2021/04/22 11:07:21;;;;;;;11.80;5.40;;;;;;;13.85;31.68;100513.81;4929521;29;20544;-70
2021/04/22 11:09:47;;;;;;;18.90;5.38;;;;;;;13.88;31.73;100515.44;4930156;29;20043;-70
2021/04/22 11:12:23;;;;;;;17.55;5.30;;;;;;;13.75;31.40;100515.22;4929409;29;20075;-70
2021/04/22 11:14:55;;;;;;;15.48;4.53;;;;;;;13.44;30.98;100519.41;4923244;28;20107;-73
2021/04/22 11:17:40;;;;;;;9.43;4.22;;;;;;;13.49;31.21;100517.41;4931174;29;20083;-72
2021/04/22 11:20:14;;;;;;;14.48;4.63;;;;;;;13.52;31.29;100517.25;4920918;29;20097;-70
2021/04/22 11:22:40;;;;;;;14.68;5.88;;;;;;;12.99;32.20;100518.00;4936761;28;20043;-70